createdAt,value
2019-02-23T00:04:14.479Z,-0.30
2019-02-23T00:09:08.035Z,-0.20
2019-02-23T00:13:59.448Z,-0.20
2019-02-23T00:18:53.123Z,-0.20
2019-02-23T00:23:44.540Z,-0.20
2019-02-23T00:28:35.975Z,-0.20
2019-02-23T00:33:27.345Z,-0.20
2019-02-23T00:38:18.698Z,-0.30
2019-02-23T00:43:12.378Z,-0.40
2019-02-23T00:48:03.808Z,-0.30
2019-02-23T00:52:55.166Z,-0.30
2019-02-23T00:57:48.826Z,-0.40
2019-02-23T01:02:40.284Z,-0.50
2019-02-23T01:07:31.645Z,-0.60
2019-02-23T01:12:23.037Z,-0.70
2019-02-23T01:17:14.484Z,-0.70
2019-02-23T01:22:05.845Z,-0.80
2019-02-23T01:26:59.466Z,-0.80
2019-02-23T01:31:50.874Z,-0.90
2019-02-23T01:36:44.567Z,-0.90
2019-02-23T01:41:36.002Z,-0.90
2019-02-23T01:46:27.347Z,-0.90
2019-02-23T01:51:18.839Z,-1.00
2019-02-23T01:56:10.221Z,-1.00
2019-02-23T02:01:01.556Z,-1.00
2019-02-23T02:05:52.966Z,-1.10
2019-02-23T02:10:44.355Z,-1.20
2019-02-23T02:15:35.709Z,-1.20
2019-02-23T02:20:27.150Z,-1.20
2019-02-23T02:25:20.814Z,-1.20
2019-02-23T02:30:12.255Z,-1.20
2019-02-23T02:35:03.673Z,-1.20
2019-02-23T02:39:55.042Z,-1.30
2019-02-23T02:44:48.638Z,-1.30
2019-02-23T02:49:42.317Z,-1.20
2019-02-23T02:54:33.779Z,-1.30
2019-02-23T02:59:25.124Z,-1.30
2019-02-23T03:04:16.573Z,-1.30
2019-02-23T03:09:07.942Z,-1.20
2019-02-23T03:13:59.308Z,-1.00
2019-02-23T03:18:50.674Z,-0.80
2019-02-23T03:23:44.316Z,-0.70
2019-02-23T03:28:35.759Z,-0.70
2019-02-23T03:33:29.406Z,-0.60
2019-02-23T03:38:20.796Z,-0.50
2019-02-23T03:43:12.225Z,-0.60
2019-02-23T03:48:03.660Z,-0.60
2019-02-23T03:52:55.027Z,-0.70
2019-02-23T03:57:48.601Z,-0.70
2019-02-23T04:02:40.103Z,-0.80
2019-02-23T04:07:31.453Z,-0.80
2019-02-23T04:12:25.081Z,-0.80
2019-02-23T04:17:16.511Z,-0.80
2019-02-23T04:22:07.944Z,-0.80
2019-02-23T04:26:59.279Z,-0.70
2019-02-23T04:31:50.642Z,-0.70
2019-02-23T04:36:42.047Z,-0.60
2019-02-23T04:41:33.502Z,-0.70
2019-02-23T04:46:27.168Z,-0.90
2019-02-23T04:51:18.544Z,-1.00
2019-02-23T04:56:09.942Z,-1.20
2019-02-23T05:01:03.553Z,-1.30
2019-02-23T05:05:55.022Z,-1.30
2019-02-23T05:10:46.483Z,-1.20
2019-02-23T05:15:37.983Z,-1.10
2019-02-23T05:20:29.335Z,-1.60
2019-02-23T05:25:20.761Z,-1.20
2019-02-23T05:30:12.149Z,-1.30
2019-02-23T05:35:03.566Z,-1.50
2019-02-23T05:39:54.926Z,-1.50
2019-02-23T05:44:46.301Z,-1.50
2019-02-23T05:49:38.089Z,-1.60
2019-02-23T05:54:29.186Z,-1.80
2019-02-23T05:59:20.562Z,-1.90
2019-02-23T06:04:11.958Z,-2.00
2019-02-23T06:09:03.355Z,-2.00
2019-02-23T06:13:54.802Z,-1.90
2019-02-23T06:18:46.215Z,-1.90
2019-02-23T06:23:37.649Z,-1.90
2019-02-23T06:28:29.118Z,-1.90
2019-02-23T06:33:20.565Z,-2.00
2019-02-23T06:38:11.940Z,-1.90
2019-02-23T06:43:03.288Z,-1.90
2019-02-23T06:47:54.688Z,-2.00
2019-02-23T06:52:46.176Z,-2.00
2019-02-23T06:57:37.605Z,-1.90
2019-02-23T07:02:29.070Z,-1.80
2019-02-23T07:07:20.492Z,-1.70
2019-02-23T07:12:11.931Z,-1.60
2019-02-23T07:17:05.763Z,-1.50
2019-02-23T07:21:54.709Z,-1.30
2019-02-23T07:26:46.154Z,-1.10
2019-02-23T07:31:37.521Z,-1.00
2019-02-23T07:36:31.200Z,-0.80
2019-02-23T07:41:22.640Z,-0.80
2019-02-23T07:46:14.084Z,-0.60
2019-02-23T07:51:05.453Z,-0.40
2019-02-23T07:55:56.861Z,-0.20
2019-02-23T08:00:48.180Z,0.20
2019-02-23T08:05:39.683Z,0.60
2019-02-23T08:10:31.022Z,1.00
2019-02-23T08:15:22.388Z,1.40
2019-02-23T08:20:13.840Z,1.70
2019-02-23T08:25:05.247Z,1.90
2019-02-23T08:29:56.604Z,2.30
2019-02-23T08:34:48.008Z,2.40
2019-02-23T08:39:39.470Z,2.80
2019-02-23T08:44:30.871Z,3.00
2019-02-23T08:49:22.246Z,3.30
2019-02-23T08:54:13.636Z,3.60
2019-02-23T08:59:05.046Z,3.80
2019-02-23T09:03:56.521Z,4.10
2019-02-23T09:08:47.875Z,4.30
2019-02-23T09:13:39.361Z,4.80
2019-02-23T09:23:24.391Z,4.80
2019-02-23T09:28:15.818Z,4.80
2019-02-23T09:33:07.297Z,5.00
2019-02-23T09:37:58.656Z,5.30
2019-02-23T09:42:50.091Z,5.30
2019-02-23T09:47:41.510Z,5.60
2019-02-23T09:52:33.022Z,5.60
2019-02-23T09:57:24.516Z,5.90
2019-02-23T10:02:15.728Z,6.20
2019-02-23T10:07:07.195Z,6.40
2019-02-23T10:11:58.497Z,6.30
2019-02-23T10:16:49.974Z,6.40
2019-02-23T10:21:41.274Z,6.60
2019-02-23T10:26:33.839Z,6.50
2019-02-23T10:31:24.457Z,6.70
2019-02-23T10:36:17.109Z,6.90
2019-02-23T10:41:06.919Z,7.00
2019-02-23T10:45:58.311Z,7.10
2019-02-23T10:50:49.729Z,7.00
2019-02-23T10:55:41.122Z,7.00
2019-02-23T11:00:32.542Z,7.00
2019-02-23T11:05:23.907Z,7.10
2019-02-23T11:10:17.681Z,7.30
2019-02-23T11:15:09.095Z,7.40
2019-02-23T11:20:02.682Z,7.40
2019-02-23T11:24:54.132Z,7.60
2019-02-23T11:29:45.564Z,7.70
2019-02-23T11:34:39.184Z,7.90
2019-02-23T11:39:32.858Z,8.20
2019-02-23T11:44:24.282Z,8.30
2019-02-23T11:49:15.785Z,8.40
2019-02-23T11:54:07.117Z,8.60
2019-02-23T11:58:58.506Z,8.70
2019-02-23T12:03:52.161Z,8.80
2019-02-23T12:08:43.593Z,8.90
2019-02-23T12:13:34.935Z,9.10
2019-02-23T12:18:28.572Z,9.10
2019-02-23T12:23:20.029Z,9.20
2019-02-23T12:28:11.402Z,9.30
2019-02-23T12:33:12.202Z,9.50
2019-02-23T12:38:03.639Z,9.50
2019-02-23T12:42:55.047Z,9.60
2019-02-23T12:47:51.055Z,9.40
2019-02-23T12:52:42.288Z,9.40
2019-02-23T12:57:38.223Z,9.40
2019-02-23T13:02:29.709Z,9.50
2019-02-23T13:07:23.271Z,9.60
2019-02-23T13:12:14.725Z,9.60
2019-02-23T13:17:06.138Z,9.60
2019-02-23T13:21:57.533Z,9.50
2019-02-23T13:26:48.869Z,9.50
2019-02-23T13:31:40.308Z,9.60
2019-02-23T13:36:33.914Z,9.70
2019-02-23T13:41:25.392Z,9.70
2019-02-23T13:46:18.940Z,9.90
2019-02-23T13:51:12.661Z,10.00
2019-02-23T13:56:04.150Z,10.20
2019-02-23T14:00:55.485Z,10.30
2019-02-23T14:05:46.920Z,10.20
2019-02-23T14:10:38.260Z,10.10
2019-02-23T14:15:29.642Z,10.10
2019-02-23T14:20:21.109Z,10.10
2019-02-23T14:25:12.540Z,10.20
2019-02-23T14:30:03.832Z,10.40
2019-02-23T14:34:57.460Z,10.30
2019-02-23T14:39:48.970Z,10.20
2019-02-23T14:44:40.395Z,10.30
2019-02-23T14:49:31.670Z,10.30
2019-02-23T14:54:23.116Z,10.20
2019-02-23T14:59:14.470Z,10.20
2019-02-23T15:04:08.091Z,10.10
2019-02-23T15:08:59.543Z,9.90
2019-02-23T15:13:50.967Z,9.80
2019-02-23T15:18:42.319Z,9.70
2019-02-23T15:23:33.703Z,9.50
2019-02-23T15:28:38.618Z,9.50
2019-02-23T15:33:16.548Z,9.40
2019-02-23T15:38:07.939Z,9.40
2019-02-23T15:42:59.370Z,9.30
2019-02-23T15:47:50.805Z,9.20
2019-02-23T15:52:42.249Z,9.10
2019-02-23T15:57:33.410Z,9.00
2019-02-23T16:02:24.839Z,8.90
2019-02-23T16:07:16.251Z,8.90
2019-02-23T16:12:07.722Z,8.70
2019-02-23T16:16:59.057Z,8.50
2019-02-23T16:21:53.744Z,8.30
2019-02-23T16:31:35.541Z,8.00
2019-02-23T16:36:27.036Z,7.80
2019-02-23T16:41:18.373Z,7.70
2019-02-23T16:46:09.777Z,7.60
2019-02-23T16:51:01.172Z,7.50
2019-02-23T16:55:55.799Z,7.30
2019-02-23T17:00:47.183Z,7.20
2019-02-23T17:05:38.554Z,7.20
2019-02-23T17:10:29.946Z,7.20
2019-02-23T17:15:21.319Z,7.20
2019-02-23T17:20:14.900Z,7.00
2019-02-23T17:25:06.334Z,6.90
2019-02-23T17:29:59.985Z,6.70
2019-02-23T17:34:53.638Z,6.70
2019-02-23T17:39:49.627Z,6.50
2019-02-23T17:44:41.010Z,6.30
2019-02-23T17:49:34.631Z,6.20
2019-02-23T17:54:28.332Z,6.10
2019-02-23T17:59:19.790Z,6.00
2019-02-23T18:04:11.144Z,5.90
2019-02-23T18:09:02.494Z,5.90
2019-02-23T18:13:53.911Z,5.80
2019-02-23T18:18:45.318Z,5.80
2019-02-23T18:23:38.881Z,5.70
2019-02-23T18:28:30.312Z,5.70
2019-02-23T18:33:21.795Z,5.60
2019-02-23T18:38:15.375Z,5.50
2019-02-23T18:43:06.804Z,5.40
2019-02-23T18:47:58.238Z,5.30
2019-02-23T18:52:49.580Z,5.20
2019-02-23T18:57:43.161Z,5.10
2019-02-23T19:02:36.848Z,5.00
2019-02-23T19:07:30.552Z,5.00
2019-02-23T19:12:24.183Z,4.90
2019-02-23T19:17:17.873Z,4.80
2019-02-23T19:22:09.309Z,4.80
2019-02-23T19:27:02.913Z,4.70
2019-02-23T19:31:54.391Z,4.50
2019-02-23T19:36:45.733Z,4.50
2019-02-23T19:41:37.134Z,4.50
2019-02-23T19:46:30.799Z,4.30
2019-02-23T19:51:22.219Z,5.00
2019-02-23T19:56:15.830Z,4.20
2019-02-23T20:01:07.300Z,4.20
2019-02-23T20:06:00.852Z,3.90
2019-02-23T20:10:52.437Z,3.60
2019-02-23T20:15:43.798Z,3.50
2019-02-23T20:20:37.329Z,3.50
2019-02-23T20:25:28.780Z,3.50
2019-02-23T20:30:20.234Z,3.40
2019-02-23T20:35:11.591Z,3.20
2019-02-23T20:40:05.193Z,2.90
2019-02-23T20:44:56.711Z,2.70
2019-02-23T20:49:50.056Z,2.40
2019-02-23T20:54:39.436Z,2.30
2019-02-23T20:59:30.763Z,2.10
2019-02-23T21:04:22.285Z,1.90
2019-02-23T21:09:13.649Z,1.80
2019-02-23T21:14:07.203Z,1.50
2019-02-23T21:19:00.856Z,1.30
2019-02-23T21:23:54.532Z,1.10
2019-02-23T21:28:45.985Z,1.00
2019-02-23T21:33:37.383Z,0.70
2019-02-23T21:38:28.772Z,0.60
2019-02-23T21:43:20.213Z,0.50
2019-02-23T21:48:11.613Z,0.30
2019-02-23T21:53:02.987Z,0.20
2019-02-23T21:57:54.366Z,0.00
2019-02-23T22:02:45.798Z,-0.10
2019-02-23T22:07:37.182Z,-0.30
2019-02-23T22:12:28.511Z,-0.30
2019-02-23T22:17:19.925Z,-0.40
2019-02-23T22:27:04.964Z,-0.60
2019-02-23T22:31:56.345Z,-0.80
2019-02-23T22:36:47.729Z,-0.90
2019-02-23T22:41:49.963Z,-0.80
2019-02-23T22:46:34.971Z,-0.80
2019-02-23T22:51:26.375Z,-1.00
2019-02-23T22:56:17.812Z,-1.10
2019-02-23T23:01:13.700Z,-1.10
2019-02-23T23:06:05.162Z,-1.30
2019-02-23T23:10:56.546Z,-1.30
2019-02-23T23:15:48.013Z,-1.50
2019-02-23T23:20:39.381Z,-1.50
2019-02-23T23:25:40.808Z,-1.60
2019-02-23T23:30:34.584Z,-1.70
2019-02-23T23:35:28.378Z,-1.70
2019-02-23T23:40:19.836Z,-1.80
2019-02-23T23:45:11.280Z,-1.80
2019-02-23T23:50:02.628Z,-1.90
2019-02-23T23:54:56.324Z,-1.90
2019-02-23T23:59:47.763Z,-2.00
